Overview Statistics Trail Chart Weather Telemetry Raw packets
 

This is the latest recevied weather packets stored in our database for station/object WAKT. If no packets are shown the sender has not sent any weather packets the latest 10 day(s).

<< 1 2 3 4 5 >>
Time Temp. Humidity Pressure Rain* Wind** Luminosity Snow
1788332950 32.78° C 59% 1 hPa 0 mm - - -
1788330978 32.78° C 59% 1 hPa 0 mm - - -
1788329005 32.78° C 63% 1 hPa 0 mm - - -
1788327038 32.78° C 63% 1 hPa 0 mm - - -
1788325067 32.22° C 52% 1 hPa 0 mm - - -
1788323092 32.22° C 52% 1 hPa 0 mm - - -
1788321124 31.11° C 59% 1 hPa 0 mm - - -
1788319153 31.11° C 59% 1 hPa 0 mm - - -
1788317188 31.11° C 59% 1 hPa 0 mm - - -
1788315229 31.11° C 59% 1 hPa 0 mm - - -
1788313262 28.89° C 70% 1 hPa 0 mm - - -
1788311310 27.22° C 74% 1 hPa 0 mm - - -
1788309344 27.22° C 74% 1 hPa 0 mm - - -
1788307372 26.11° C 84% 1 hPa 0 mm - - -
1788305424 26.11° C 84% 1 hPa 0 mm - - -
1788303482 23.89° C 94% 1 hPa 0 mm - - -
1788301540 23.89° C 94% 1 hPa 0 mm - - -
1788299597 22.78° C 94% 1 hPa 0 mm - - -
1788297655 22.78° C 94% 1 hPa 0 mm - - -
1788295711 22.78° C 94% 1 hPa 0 mm - - -
1788293767 22.78° C 94% 1 hPa 0 mm - - -
1788291829 22.78° C 94% 1 hPa 0 mm - - -
1788287953 23.89° C 89% 1 hPa 0 mm - - -
1788286014 23.89° C 89% 1 hPa 0 mm - - -
1788284040 23.89° C 89% 1 hPa 0 mm - - -

* Rain latest hour (hover to see other rain measurements)
** Current wind speed in m/s (hover to see current wind gust speed)